Little, Indiana
Current Conditions -  °F | °C
As of 11:15 PM on Monday 20 Oct 2014 (Local Time) from KDCY Reporting Station
Clear Clear  
Wind Chill: 53°   Ceiling: Unl
Heat Index: 53°   Visibility: 10mi
Dew Point: 46°   Wind: 7mph
Humidity: 75%   Direction: 300°WNW
Pressure: 29.98"   Gusts: NA
Location:  38.4723°N, 87.3105°W
Report Text: KDCY 210415Z AUTO 30006KT 10SM CLR 12/08 A2998 RMK AO2 T01180075
Loading
Personal Weather Stations






























Interactive Weather Map
Tropical Storm Tracking
New forecast layout! Learn more

10-Day Weather Forecast

Advertisements
Track Severe Weather on mobile